sensor_id;sensor_type;location;lat;lon;timestamp;P1;durP1;ratioP1;P2;durP2;ratioP2
19780;SDS011;10050;55.492;13.506;2024-01-07T00:02:14;4.23;;;3.80;;
19780;SDS011;10050;55.492;13.506;2024-01-07T00:04:39;4.67;;;3.43;;
19780;SDS011;10050;55.492;13.506;2024-01-07T00:07:05;4.67;;;3.60;;
19780;SDS011;10050;55.492;13.506;2024-01-07T00:09:31;7.30;;;3.83;;
19780;SDS011;10050;55.492;13.506;2024-01-07T00:11:57;4.03;;;3.60;;
19780;SDS011;10050;55.492;13.506;2024-01-07T00:14:22;3.50;;;3.07;;
19780;SDS011;10050;55.492;13.506;2024-01-07T00:16:48;3.83;;;3.43;;
19780;SDS011;10050;55.492;13.506;2024-01-07T00:19:14;3.13;;;2.83;;
19780;SDS011;10050;55.492;13.506;2024-01-07T00:21:39;4.37;;;3.37;;
19780;SDS011;10050;55.492;13.506;2024-01-07T00:24:08;5.40;;;3.37;;
19780;SDS011;10050;55.492;13.506;2024-01-07T00:26:33;4.13;;;3.43;;
19780;SDS011;10050;55.492;13.506;2024-01-07T00:28:59;4.87;;;3.00;;
19780;SDS011;10050;55.492;13.506;2024-01-07T00:31:24;2.70;;;2.43;;
19780;SDS011;10050;55.492;13.506;2024-01-07T00:33:50;3.60;;;2.93;;
19780;SDS011;10050;55.492;13.506;2024-01-07T00:36:16;2.83;;;2.63;;
19780;SDS011;10050;55.492;13.506;2024-01-07T00:38:41;3.37;;;3.07;;
19780;SDS011;10050;55.492;13.506;2024-01-07T00:41:07;4.63;;;3.07;;
19780;SDS011;10050;55.492;13.506;2024-01-07T00:43:33;2.63;;;2.43;;
19780;SDS011;10050;55.492;13.506;2024-01-07T00:45:58;2.83;;;2.30;;
19780;SDS011;10050;55.492;13.506;2024-01-07T00:48:24;2.90;;;2.47;;
19780;SDS011;10050;55.492;13.506;2024-01-07T00:50:50;2.60;;;2.40;;
19780;SDS011;10050;55.492;13.506;2024-01-07T00:53:15;3.63;;;2.43;;
19780;SDS011;10050;55.492;13.506;2024-01-07T00:55:41;2.50;;;2.30;;
19780;SDS011;10050;55.492;13.506;2024-01-07T00:58:06;3.60;;;2.57;;
19780;SDS011;10050;55.492;13.506;2024-01-07T01:00:35;2.47;;;2.07;;
19780;SDS011;10050;55.492;13.506;2024-01-07T01:03:01;2.53;;;2.30;;
19780;SDS011;10050;55.492;13.506;2024-01-07T01:05:26;3.40;;;2.37;;
19780;SDS011;10050;55.492;13.506;2024-01-07T01:07:52;2.50;;;2.30;;
19780;SDS011;10050;55.492;13.506;2024-01-07T01:10:17;2.47;;;2.20;;
19780;SDS011;10050;55.492;13.506;2024-01-07T01:12:44;2.80;;;2.33;;
19780;SDS011;10050;55.492;13.506;2024-01-07T01:15:09;2.47;;;2.00;;
19780;SDS011;10050;55.492;13.506;2024-01-07T01:17:35;2.50;;;2.30;;
19780;SDS011;10050;55.492;13.506;2024-01-07T01:20:01;2.60;;;2.30;;
19780;SDS011;10050;55.492;13.506;2024-01-07T01:22:27;5.20;;;4.63;;
19780;SDS011;10050;55.492;13.506;2024-01-07T01:24:53;3.50;;;2.73;;
19780;SDS011;10050;55.492;13.506;2024-01-07T01:27:18;2.53;;;2.33;;
19780;SDS011;10050;55.492;13.506;2024-01-07T01:29:44;3.13;;;2.27;;
19780;SDS011;10050;55.492;13.506;2024-01-07T01:32:10;2.47;;;2.27;;
19780;SDS011;10050;55.492;13.506;2024-01-07T01:34:36;2.47;;;2.27;;
19780;SDS011;10050;55.492;13.506;2024-01-07T01:37:01;2.40;;;2.20;;
19780;SDS011;10050;55.492;13.506;2024-01-07T01:39:28;2.50;;;2.30;;
19780;SDS011;10050;55.492;13.506;2024-01-07T01:41:54;2.50;;;2.30;;
19780;SDS011;10050;55.492;13.506;2024-01-07T01:44:20;3.23;;;1.97;;
19780;SDS011;10050;55.492;13.506;2024-01-07T01:46:46;2.57;;;2.37;;
19780;SDS011;10050;55.492;13.506;2024-01-07T01:49:12;2.30;;;2.10;;
19780;SDS011;10050;55.492;13.506;2024-01-07T01:51:41;2.33;;;2.00;;
19780;SDS011;10050;55.492;13.506;2024-01-07T01:54:07;2.23;;;2.03;;
19780;SDS011;10050;55.492;13.506;2024-01-07T01:56:33;2.47;;;2.23;;
19780;SDS011;10050;55.492;13.506;2024-01-07T01:58:59;2.17;;;2.00;;
19780;SDS011;10050;55.492;13.506;2024-01-07T02:01:25;2.87;;;2.67;;
19780;SDS011;10050;55.492;13.506;2024-01-07T02:03:51;2.27;;;2.00;;
19780;SDS011;10050;55.492;13.506;2024-01-07T02:06:19;3.37;;;2.67;;
19780;SDS011;10050;55.492;13.506;2024-01-07T02:08:46;2.87;;;2.20;;
19780;SDS011;10050;55.492;13.506;2024-01-07T02:11:15;3.23;;;2.93;;
19780;SDS011;10050;55.492;13.506;2024-01-07T02:13:42;3.07;;;2.77;;
19780;SDS011;10050;55.492;13.506;2024-01-07T02:16:07;3.10;;;2.90;;
19780;SDS011;10050;55.492;13.506;2024-01-07T02:18:33;2.70;;;2.50;;
19780;SDS011;10050;55.492;13.506;2024-01-07T02:20:59;2.80;;;2.60;;
19780;SDS011;10050;55.492;13.506;2024-01-07T02:23:25;2.90;;;2.60;;
19780;SDS011;10050;55.492;13.506;2024-01-07T02:25:50;2.60;;;2.43;;
19780;SDS011;10050;55.492;13.506;2024-01-07T02:28:16;4.63;;;2.80;;
19780;SDS011;10050;55.492;13.506;2024-01-07T02:30:42;2.40;;;2.20;;
19780;SDS011;10050;55.492;13.506;2024-01-07T02:33:07;2.43;;;2.00;;
19780;SDS011;10050;55.492;13.506;2024-01-07T02:35:33;3.10;;;2.40;;
19780;SDS011;10050;55.492;13.506;2024-01-07T02:37:58;2.90;;;2.20;;
19780;SDS011;10050;55.492;13.506;2024-01-07T02:40:24;3.30;;;2.33;;
19780;SDS011;10050;55.492;13.506;2024-01-07T02:42:50;3.53;;;2.67;;
19780;SDS011;10050;55.492;13.506;2024-01-07T02:45:15;2.40;;;2.20;;
19780;SDS011;10050;55.492;13.506;2024-01-07T02:47:41;2.83;;;2.13;;
19780;SDS011;10050;55.492;13.506;2024-01-07T02:50:07;2.70;;;2.50;;
19780;SDS011;10050;55.492;13.506;2024-01-07T02:52:32;2.77;;;2.50;;
19780;SDS011;10050;55.492;13.506;2024-01-07T02:54:58;2.77;;;2.57;;
19780;SDS011;10050;55.492;13.506;2024-01-07T02:57:26;2.60;;;2.40;;
19780;SDS011;10050;55.492;13.506;2024-01-07T02:59:52;2.90;;;2.20;;
19780;SDS011;10050;55.492;13.506;2024-01-07T03:02:18;3.43;;;2.00;;
19780;SDS011;10050;55.492;13.506;2024-01-07T03:04:43;2.93;;;2.23;;
19780;SDS011;10050;55.492;13.506;2024-01-07T03:07:09;3.23;;;2.93;;
19780;SDS011;10050;55.492;13.506;2024-01-07T03:09:35;4.63;;;3.00;;
19780;SDS011;10050;55.492;13.506;2024-01-07T03:12:00;2.83;;;2.63;;
19780;SDS011;10050;55.492;13.506;2024-01-07T03:14:26;2.87;;;2.67;;
19780;SDS011;10050;55.492;13.506;2024-01-07T03:16:52;4.00;;;3.27;;
19780;SDS011;10050;55.492;13.506;2024-01-07T03:19:17;3.20;;;2.97;;
19780;SDS011;10050;55.492;13.506;2024-01-07T03:21:43;3.50;;;3.20;;
19780;SDS011;10050;55.492;13.506;2024-01-07T03:24:09;2.80;;;2.40;;
19780;SDS011;10050;55.492;13.506;2024-01-07T03:26:35;2.60;;;2.40;;
19780;SDS011;10050;55.492;13.506;2024-01-07T03:29:01;2.10;;;1.90;;
19780;SDS011;10050;55.492;13.506;2024-01-07T03:31:27;2.60;;;2.40;;
19780;SDS011;10050;55.492;13.506;2024-01-07T03:33:53;3.00;;;2.73;;
19780;SDS011;10050;55.492;13.506;2024-01-07T03:36:19;4.47;;;2.83;;
19780;SDS011;10050;55.492;13.506;2024-01-07T03:38:45;6.27;;;3.03;;
19780;SDS011;10050;55.492;13.506;2024-01-07T03:41:15;3.37;;;2.80;;
19780;SDS011;10050;55.492;13.506;2024-01-07T03:43:46;3.93;;;3.30;;
19780;SDS011;10050;55.492;13.506;2024-01-07T03:46:12;3.10;;;2.80;;
19780;SDS011;10050;55.492;13.506;2024-01-07T03:48:38;2.73;;;2.53;;
19780;SDS011;10050;55.492;13.506;2024-01-07T03:51:05;3.70;;;3.20;;
19780;SDS011;10050;55.492;13.506;2024-01-07T03:53:31;2.47;;;2.33;;
19780;SDS011;10050;55.492;13.506;2024-01-07T03:55:56;2.87;;;2.53;;
19780;SDS011;10050;55.492;13.506;2024-01-07T03:58:22;2.83;;;2.30;;
19780;SDS011;10050;55.492;13.506;2024-01-07T04:00:48;2.77;;;2.07;;
19780;SDS011;10050;55.492;13.506;2024-01-07T04:03:13;3.33;;;2.60;;
19780;SDS011;10050;55.492;13.506;2024-01-07T04:05:39;3.03;;;2.60;;
19780;SDS011;10050;55.492;13.506;2024-01-07T04:08:05;3.23;;;2.93;;
19780;SDS011;10050;55.492;13.506;2024-01-07T04:10:30;4.27;;;2.90;;
19780;SDS011;10050;55.492;13.506;2024-01-07T04:12:56;3.30;;;3.00;;
19780;SDS011;10050;55.492;13.506;2024-01-07T04:15:22;2.87;;;2.57;;
19780;SDS011;10050;55.492;13.506;2024-01-07T04:17:49;2.70;;;2.50;;
19780;SDS011;10050;55.492;13.506;2024-01-07T04:20:15;3.20;;;2.70;;
19780;SDS011;10050;55.492;13.506;2024-01-07T04:22:43;3.43;;;3.20;;
19780;SDS011;10050;55.492;13.506;2024-01-07T04:25:09;3.87;;;3.40;;
19780;SDS011;10050;55.492;13.506;2024-01-07T04:27:35;2.90;;;2.50;;
19780;SDS011;10050;55.492;13.506;2024-01-07T04:30:02;3.37;;;3.07;;
19780;SDS011;10050;55.492;13.506;2024-01-07T04:32:28;3.23;;;2.93;;
19780;SDS011;10050;55.492;13.506;2024-01-07T04:34:54;2.77;;;2.40;;
19780;SDS011;10050;55.492;13.506;2024-01-07T04:37:21;3.80;;;2.80;;
19780;SDS011;10050;55.492;13.506;2024-01-07T04:39:46;3.37;;;2.90;;
19780;SDS011;10050;55.492;13.506;2024-01-07T04:42:12;2.73;;;2.53;;
19780;SDS011;10050;55.492;13.506;2024-01-07T04:44:38;2.93;;;2.70;;
19780;SDS011;10050;55.492;13.506;2024-01-07T04:47:04;3.10;;;2.90;;
19780;SDS011;10050;55.492;13.506;2024-01-07T04:49:29;2.90;;;2.70;;
19780;SDS011;10050;55.492;13.506;2024-01-07T04:51:55;3.60;;;3.30;;
19780;SDS011;10050;55.492;13.506;2024-01-07T04:54:20;2.90;;;2.70;;
19780;SDS011;10050;55.492;13.506;2024-01-07T04:56:46;5.30;;;3.10;;
19780;SDS011;10050;55.492;13.506;2024-01-07T04:59:12;2.47;;;2.27;;
19780;SDS011;10050;55.492;13.506;2024-01-07T05:01:37;3.13;;;2.83;;
19780;SDS011;10050;55.492;13.506;2024-01-07T05:04:03;4.00;;;3.07;;
19780;SDS011;10050;55.492;13.506;2024-01-07T05:06:28;2.67;;;2.47;;
19780;SDS011;10050;55.492;13.506;2024-01-07T05:08:54;3.17;;;2.87;;
19780;SDS011;10050;55.492;13.506;2024-01-07T05:11:20;2.77;;;2.00;;
19780;SDS011;10050;55.492;13.506;2024-01-07T05:13:45;2.57;;;2.37;;
19780;SDS011;10050;55.492;13.506;2024-01-07T05:16:18;2.77;;;2.57;;
19780;SDS011;10050;55.492;13.506;2024-01-07T05:18:44;2.30;;;2.17;;
19780;SDS011;10050;55.492;13.506;2024-01-07T05:21:13;2.40;;;2.20;;
19780;SDS011;10050;55.492;13.506;2024-01-07T05:23:47;4.27;;;2.90;;
19780;SDS011;10050;55.492;13.506;2024-01-07T05:26:13;2.53;;;2.17;;
19780;SDS011;10050;55.492;13.506;2024-01-07T05:28:39;2.50;;;2.30;;
19780;SDS011;10050;55.492;13.506;2024-01-07T05:31:04;2.70;;;2.50;;
19780;SDS011;10050;55.492;13.506;2024-01-07T05:33:30;3.33;;;3.13;;
19780;SDS011;10050;55.492;13.506;2024-01-07T05:35:55;4.17;;;2.80;;
19780;SDS011;10050;55.492;13.506;2024-01-07T05:38:21;2.73;;;2.37;;
19780;SDS011;10050;55.492;13.506;2024-01-07T05:40:47;3.77;;;3.23;;
19780;SDS011;10050;55.492;13.506;2024-01-07T05:43:12;3.97;;;3.60;;
19780;SDS011;10050;55.492;13.506;2024-01-07T05:45:38;3.33;;;3.03;;
19780;SDS011;10050;55.492;13.506;2024-01-07T05:48:03;3.30;;;3.10;;
19780;SDS011;10050;55.492;13.506;2024-01-07T05:50:29;4.37;;;3.60;;
19780;SDS011;10050;55.492;13.506;2024-01-07T05:52:55;3.40;;;3.10;;
19780;SDS011;10050;55.492;13.506;2024-01-07T05:55:20;3.37;;;3.07;;
19780;SDS011;10050;55.492;13.506;2024-01-07T05:57:46;3.43;;;2.93;;
19780;SDS011;10050;55.492;13.506;2024-01-07T06:00:12;2.97;;;2.77;;
19780;SDS011;10050;55.492;13.506;2024-01-07T06:02:38;3.23;;;2.93;;
19780;SDS011;10050;55.492;13.506;2024-01-07T06:05:04;2.90;;;2.70;;
19780;SDS011;10050;55.492;13.506;2024-01-07T06:07:30;4.03;;;3.63;;
19780;SDS011;10050;55.492;13.506;2024-01-07T06:09:56;4.67;;;4.00;;
19780;SDS011;10050;55.492;13.506;2024-01-07T06:12:21;4.00;;;3.60;;
19780;SDS011;10050;55.492;13.506;2024-01-07T06:14:47;3.73;;;3.40;;
19780;SDS011;10050;55.492;13.506;2024-01-07T06:17:13;3.27;;;3.07;;
19780;SDS011;10050;55.492;13.506;2024-01-07T06:19:38;3.37;;;3.07;;
19780;SDS011;10050;55.492;13.506;2024-01-07T06:22:04;4.20;;;3.80;;
19780;SDS011;10050;55.492;13.506;2024-01-07T06:24:29;3.57;;;3.27;;
19780;SDS011;10050;55.492;13.506;2024-01-07T06:26:55;3.43;;;2.83;;
19780;SDS011;10050;55.492;13.506;2024-01-07T06:29:24;3.47;;;3.17;;
19780;SDS011;10050;55.492;13.506;2024-01-07T06:31:50;3.43;;;3.13;;
19780;SDS011;10050;55.492;13.506;2024-01-07T06:34:15;4.00;;;3.60;;
19780;SDS011;10050;55.492;13.506;2024-01-07T06:36:41;3.53;;;3.23;;
19780;SDS011;10050;55.492;13.506;2024-01-07T06:39:07;5.13;;;3.20;;
19780;SDS011;10050;55.492;13.506;2024-01-07T06:41:33;3.00;;;2.70;;
19780;SDS011;10050;55.492;13.506;2024-01-07T06:43:59;3.33;;;3.03;;
19780;SDS011;10050;55.492;13.506;2024-01-07T06:46:25;5.97;;;2.90;;
19780;SDS011;10050;55.492;13.506;2024-01-07T06:48:50;3.77;;;2.90;;
19780;SDS011;10050;55.492;13.506;2024-01-07T06:51:16;3.23;;;2.93;;
19780;SDS011;10050;55.492;13.506;2024-01-07T06:53:42;3.40;;;2.87;;
19780;SDS011;10050;55.492;13.506;2024-01-07T06:56:08;4.23;;;3.37;;
19780;SDS011;10050;55.492;13.506;2024-01-07T06:58:34;3.27;;;2.97;;
19780;SDS011;10050;55.492;13.506;2024-01-07T07:00:59;3.50;;;3.20;;
19780;SDS011;10050;55.492;13.506;2024-01-07T07:03:25;3.43;;;3.13;;
19780;SDS011;10050;55.492;13.506;2024-01-07T07:05:51;3.03;;;2.80;;
19780;SDS011;10050;55.492;13.506;2024-01-07T07:08:16;3.70;;;2.90;;
19780;SDS011;10050;55.492;13.506;2024-01-07T07:10:42;3.50;;;3.20;;
19780;SDS011;10050;55.492;13.506;2024-01-07T07:13:08;3.30;;;3.00;;
19780;SDS011;10050;55.492;13.506;2024-01-07T07:15:33;3.20;;;3.00;;
19780;SDS011;10050;55.492;13.506;2024-01-07T07:17:59;3.87;;;3.00;;
19780;SDS011;10050;55.492;13.506;2024-01-07T07:20:25;2.90;;;2.70;;
19780;SDS011;10050;55.492;13.506;2024-01-07T07:22:50;2.80;;;2.60;;
19780;SDS011;10050;55.492;13.506;2024-01-07T07:25:16;3.23;;;2.70;;
19780;SDS011;10050;55.492;13.506;2024-01-07T07:27:42;4.63;;;3.30;;
19780;SDS011;10050;55.492;13.506;2024-01-07T07:30:08;3.43;;;3.13;;
19780;SDS011;10050;55.492;13.506;2024-01-07T07:32:34;4.83;;;3.20;;
19780;SDS011;10050;55.492;13.506;2024-01-07T07:35:00;3.00;;;2.80;;
19780;SDS011;10050;55.492;13.506;2024-01-07T07:37:26;3.40;;;3.10;;
19780;SDS011;10050;55.492;13.506;2024-01-07T07:39:52;3.67;;;3.37;;
19780;SDS011;10050;55.492;13.506;2024-01-07T07:42:17;4.13;;;3.33;;
19780;SDS011;10050;55.492;13.506;2024-01-07T07:44:43;3.37;;;3.07;;
19780;SDS011;10050;55.492;13.506;2024-01-07T07:47:09;3.57;;;3.20;;
19780;SDS011;10050;55.492;13.506;2024-01-07T07:49:36;2.90;;;2.70;;
19780;SDS011;10050;55.492;13.506;2024-01-07T07:52:05;4.53;;;3.43;;
19780;SDS011;10050;55.492;13.506;2024-01-07T07:54:39;3.90;;;3.50;;
19780;SDS011;10050;55.492;13.506;2024-01-07T07:57:05;3.57;;;3.27;;
19780;SDS011;10050;55.492;13.506;2024-01-07T07:59:30;3.70;;;3.40;;
19780;SDS011;10050;55.492;13.506;2024-01-07T08:01:56;3.20;;;2.97;;
19780;SDS011;10050;55.492;13.506;2024-01-07T08:04:22;4.10;;;3.70;;
19780;SDS011;10050;55.492;13.506;2024-01-07T08:06:47;4.03;;;3.00;;
19780;SDS011;10050;55.492;13.506;2024-01-07T08:09:13;4.13;;;3.30;;
19780;SDS011;10050;55.492;13.506;2024-01-07T08:11:39;3.40;;;3.10;;
19780;SDS011;10050;55.492;13.506;2024-01-07T08:14:04;4.17;;;3.47;;
19780;SDS011;10050;55.492;13.506;2024-01-07T08:16:31;4.10;;;2.77;;
19780;SDS011;10050;55.492;13.506;2024-01-07T08:18:56;4.07;;;3.57;;
19780;SDS011;10050;55.492;13.506;2024-01-07T08:21:22;3.33;;;3.00;;
19780;SDS011;10050;55.492;13.506;2024-01-07T08:23:48;3.27;;;3.00;;
19780;SDS011;10050;55.492;13.506;2024-01-07T08:26:20;4.43;;;3.00;;
19780;SDS011;10050;55.492;13.506;2024-01-07T08:28:46;3.00;;;2.80;;
19780;SDS011;10050;55.492;13.506;2024-01-07T08:31:11;4.60;;;2.80;;
19780;SDS011;10050;55.492;13.506;2024-01-07T08:33:37;3.13;;;2.83;;
19780;SDS011;10050;55.492;13.506;2024-01-07T08:36:03;4.33;;;3.40;;
19780;SDS011;10050;55.492;13.506;2024-01-07T08:38:29;4.57;;;3.47;;
19780;SDS011;10050;55.492;13.506;2024-01-07T08:40:55;4.17;;;3.57;;
19780;SDS011;10050;55.492;13.506;2024-01-07T08:43:20;4.27;;;3.47;;
19780;SDS011;10050;55.492;13.506;2024-01-07T08:45:46;3.50;;;3.13;;
19780;SDS011;10050;55.492;13.506;2024-01-07T08:48:12;3.43;;;3.10;;
19780;SDS011;10050;55.492;13.506;2024-01-07T08:50:38;3.67;;;3.07;;
19780;SDS011;10050;55.492;13.506;2024-01-07T08:53:04;3.67;;;3.10;;
19780;SDS011;10050;55.492;13.506;2024-01-07T08:55:29;3.57;;;2.50;;
19780;SDS011;10050;55.492;13.506;2024-01-07T08:57:56;4.10;;;3.07;;
19780;SDS011;10050;55.492;13.506;2024-01-07T09:00:22;4.27;;;3.20;;
19780;SDS011;10050;55.492;13.506;2024-01-07T09:02:51;3.10;;;2.80;;
19780;SDS011;10050;55.492;13.506;2024-01-07T09:05:19;3.77;;;3.47;;
19780;SDS011;10050;55.492;13.506;2024-01-07T09:07:44;3.10;;;2.80;;
19780;SDS011;10050;55.492;13.506;2024-01-07T09:10:10;3.43;;;3.13;;
19780;SDS011;10050;55.492;13.506;2024-01-07T09:12:38;2.90;;;2.60;;
19780;SDS011;10050;55.492;13.506;2024-01-07T09:15:04;3.33;;;2.90;;
19780;SDS011;10050;55.492;13.506;2024-01-07T09:17:34;2.80;;;2.60;;
19780;SDS011;10050;55.492;13.506;2024-01-07T09:20:01;3.57;;;2.87;;
19780;SDS011;10050;55.492;13.506;2024-01-07T09:22:29;3.10;;;2.80;;
19780;SDS011;10050;55.492;13.506;2024-01-07T09:24:55;3.10;;;2.80;;
19780;SDS011;10050;55.492;13.506;2024-01-07T09:27:21;2.57;;;2.33;;
19780;SDS011;10050;55.492;13.506;2024-01-07T09:29:46;2.80;;;2.60;;
19780;SDS011;10050;55.492;13.506;2024-01-07T09:32:12;2.83;;;2.33;;
19780;SDS011;10050;55.492;13.506;2024-01-07T09:34:38;2.73;;;2.53;;
19780;SDS011;10050;55.492;13.506;2024-01-07T09:37:03;4.27;;;2.67;;
19780;SDS011;10050;55.492;13.506;2024-01-07T09:39:29;3.10;;;2.80;;
19780;SDS011;10050;55.492;13.506;2024-01-07T09:41:55;2.70;;;2.37;;
19780;SDS011;10050;55.492;13.506;2024-01-07T09:44:20;4.37;;;2.40;;
19780;SDS011;10050;55.492;13.506;2024-01-07T09:46:46;2.80;;;2.60;;
19780;SDS011;10050;55.492;13.506;2024-01-07T09:49:16;2.90;;;2.70;;
19780;SDS011;10050;55.492;13.506;2024-01-07T09:51:42;2.83;;;2.63;;
19780;SDS011;10050;55.492;13.506;2024-01-07T09:54:11;2.77;;;2.57;;
19780;SDS011;10050;55.492;13.506;2024-01-07T09:56:42;3.13;;;2.83;;
19780;SDS011;10050;55.492;13.506;2024-01-07T09:59:33;3.30;;;3.00;;
19780;SDS011;10050;55.492;13.506;2024-01-07T10:02:01;3.37;;;3.07;;
19780;SDS011;10050;55.492;13.506;2024-01-07T10:04:27;3.23;;;2.93;;
19780;SDS011;10050;55.492;13.506;2024-01-07T10:06:53;3.20;;;2.90;;
19780;SDS011;10050;55.492;13.506;2024-01-07T10:09:21;3.87;;;3.50;;
19780;SDS011;10050;55.492;13.506;2024-01-07T10:11:49;9.13;;;6.23;;
19780;SDS011;10050;55.492;13.506;2024-01-07T10:14:15;11.07;;;6.93;;
19780;SDS011;10050;55.492;13.506;2024-01-07T10:16:41;8.97;;;5.43;;
19780;SDS011;10050;55.492;13.506;2024-01-07T10:19:07;3.77;;;3.37;;
19780;SDS011;10050;55.492;13.506;2024-01-07T10:21:33;3.70;;;3.30;;
19780;SDS011;10050;55.492;13.506;2024-01-07T10:24:11;3.70;;;3.40;;
19780;SDS011;10050;55.492;13.506;2024-01-07T10:26:38;3.30;;;3.00;;
19780;SDS011;10050;55.492;13.506;2024-01-07T10:29:05;8.00;;;5.20;;
19780;SDS011;10050;55.492;13.506;2024-01-07T10:31:31;8.57;;;6.07;;
19780;SDS011;10050;55.492;13.506;2024-01-07T10:33:57;5.07;;;3.93;;
19780;SDS011;10050;55.492;13.506;2024-01-07T10:36:22;4.30;;;3.57;;
19780;SDS011;10050;55.492;13.506;2024-01-07T10:38:49;4.27;;;3.17;;
19780;SDS011;10050;55.492;13.506;2024-01-07T10:41:17;3.53;;;3.17;;
19780;SDS011;10050;55.492;13.506;2024-01-07T10:43:47;3.33;;;3.00;;
19780;SDS011;10050;55.492;13.506;2024-01-07T10:46:13;3.53;;;3.23;;
19780;SDS011;10050;55.492;13.506;2024-01-07T10:49:23;3.23;;;2.90;;
19780;SDS011;10050;55.492;13.506;2024-01-07T10:51:34;3.83;;;3.37;;
19780;SDS011;10050;55.492;13.506;2024-01-07T10:53:59;3.80;;;3.37;;
19780;SDS011;10050;55.492;13.506;2024-01-07T10:56:31;5.70;;;3.23;;
19780;SDS011;10050;55.492;13.506;2024-01-07T10:59:10;3.57;;;2.77;;
19780;SDS011;10050;55.492;13.506;2024-01-07T11:01:35;5.03;;;3.30;;
19780;SDS011;10050;55.492;13.506;2024-01-07T11:04:06;4.83;;;3.70;;
19780;SDS011;10050;55.492;13.506;2024-01-07T11:06:55;3.60;;;3.30;;
19780;SDS011;10050;55.492;13.506;2024-01-07T11:12:10;4.60;;;3.30;;
19780;SDS011;10050;55.492;13.506;2024-01-07T11:14:37;5.33;;;4.30;;
19780;SDS011;10050;55.492;13.506;2024-01-07T11:17:07;4.00;;;3.60;;
19780;SDS011;10050;55.492;13.506;2024-01-07T11:19:36;7.97;;;3.90;;
19780;SDS011;10050;55.492;13.506;2024-01-07T11:22:21;3.97;;;3.50;;
19780;SDS011;10050;55.492;13.506;2024-01-07T11:24:48;3.97;;;3.47;;
19780;SDS011;10050;55.492;13.506;2024-01-07T11:27:15;4.70;;;3.50;;
19780;SDS011;10050;55.492;13.506;2024-01-07T11:29:41;4.37;;;3.30;;
19780;SDS011;10050;55.492;13.506;2024-01-07T11:32:07;3.73;;;3.30;;
19780;SDS011;10050;55.492;13.506;2024-01-07T11:34:42;5.93;;;4.13;;
19780;SDS011;10050;55.492;13.506;2024-01-07T11:37:12;5.40;;;3.80;;
19780;SDS011;10050;55.492;13.506;2024-01-07T11:39:47;5.23;;;3.53;;
19780;SDS011;10050;55.492;13.506;2024-01-07T11:42:16;7.87;;;3.63;;
19780;SDS011;10050;55.492;13.506;2024-01-07T11:44:49;5.23;;;3.90;;
19780;SDS011;10050;55.492;13.506;2024-01-07T11:47:16;3.70;;;3.40;;
19780;SDS011;10050;55.492;13.506;2024-01-07T11:49:42;5.17;;;3.90;;
19780;SDS011;10050;55.492;13.506;2024-01-07T11:52:09;4.90;;;3.80;;
19780;SDS011;10050;55.492;13.506;2024-01-07T11:54:35;4.87;;;4.10;;
19780;SDS011;10050;55.492;13.506;2024-01-07T11:57:02;4.20;;;3.73;;
19780;SDS011;10050;55.492;13.506;2024-01-07T11:59:32;5.17;;;4.37;;
19780;SDS011;10050;55.492;13.506;2024-01-07T12:02:02;5.87;;;4.13;;
19780;SDS011;10050;55.492;13.506;2024-01-07T12:04:31;5.53;;;4.67;;
19780;SDS011;10050;55.492;13.506;2024-01-07T12:07:04;6.50;;;4.07;;
19780;SDS011;10050;55.492;13.506;2024-01-07T12:09:30;11.47;;;4.60;;
19780;SDS011;10050;55.492;13.506;2024-01-07T12:11:56;5.77;;;4.53;;
19780;SDS011;10050;55.492;13.506;2024-01-07T12:14:21;6.67;;;4.50;;
19780;SDS011;10050;55.492;13.506;2024-01-07T12:16:47;4.97;;;4.47;;
19780;SDS011;10050;55.492;13.506;2024-01-07T12:19:13;6.30;;;4.37;;
19780;SDS011;10050;55.492;13.506;2024-01-07T12:21:39;4.20;;;3.70;;
19780;SDS011;10050;55.492;13.506;2024-01-07T12:24:05;4.90;;;4.10;;
19780;SDS011;10050;55.492;13.506;2024-01-07T12:26:31;5.53;;;4.55;;
19780;SDS011;10050;55.492;13.506;2024-01-07T12:28:58;6.67;;;4.63;;
19780;SDS011;10050;55.492;13.506;2024-01-07T12:31:28;7.27;;;4.50;;
19780;SDS011;10050;55.492;13.506;2024-01-07T12:33:57;4.73;;;3.77;;
19780;SDS011;10050;55.492;13.506;2024-01-07T12:36:23;4.97;;;4.27;;
19780;SDS011;10050;55.492;13.506;2024-01-07T12:38:49;6.53;;;4.50;;
19780;SDS011;10050;55.492;13.506;2024-01-07T12:41:16;5.23;;;4.17;;
19780;SDS011;10050;55.492;13.506;2024-01-07T12:43:42;5.60;;;4.37;;
19780;SDS011;10050;55.492;13.506;2024-01-07T12:46:08;5.27;;;4.77;;
19780;SDS011;10050;55.492;13.506;2024-01-07T12:48:34;6.73;;;4.17;;
19780;SDS011;10050;55.492;13.506;2024-01-07T12:51:00;5.27;;;3.90;;
19780;SDS011;10050;55.492;13.506;2024-01-07T12:53:26;5.50;;;4.27;;
19780;SDS011;10050;55.492;13.506;2024-01-07T12:55:52;5.40;;;3.90;;
19780;SDS011;10050;55.492;13.506;2024-01-07T12:58:18;7.17;;;4.63;;
19780;SDS011;10050;55.492;13.506;2024-01-07T13:00:44;7.83;;;4.97;;
19780;SDS011;10050;55.492;13.506;2024-01-07T13:03:10;6.17;;;4.13;;
19780;SDS011;10050;55.492;13.506;2024-01-07T13:05:45;5.70;;;4.10;;
19780;SDS011;10050;55.492;13.506;2024-01-07T13:08:13;4.43;;;4.03;;
19780;SDS011;10050;55.492;13.506;2024-01-07T13:10:41;6.53;;;5.00;;
19780;SDS011;10050;55.492;13.506;2024-01-07T13:13:06;8.57;;;4.53;;
19780;SDS011;10050;55.492;13.506;2024-01-07T13:15:34;7.90;;;5.13;;
19780;SDS011;10050;55.492;13.506;2024-01-07T13:18:00;7.67;;;5.50;;
19780;SDS011;10050;55.492;13.506;2024-01-07T13:20:26;7.00;;;5.10;;
19780;SDS011;10050;55.492;13.506;2024-01-07T13:22:51;6.33;;;4.67;;
19780;SDS011;10050;55.492;13.506;2024-01-07T13:25:17;7.47;;;4.90;;
19780;SDS011;10050;55.492;13.506;2024-01-07T13:27:42;6.87;;;4.50;;
19780;SDS011;10050;55.492;13.506;2024-01-07T13:30:08;6.33;;;4.40;;
19780;SDS011;10050;55.492;13.506;2024-01-07T13:32:34;9.43;;;4.60;;
19780;SDS011;10050;55.492;13.506;2024-01-07T13:35:01;7.97;;;5.20;;
19780;SDS011;10050;55.492;13.506;2024-01-07T13:37:35;6.53;;;4.57;;
19780;SDS011;10050;55.492;13.506;2024-01-07T13:40:01;6.87;;;5.03;;
19780;SDS011;10050;55.492;13.506;2024-01-07T13:42:28;6.93;;;5.17;;
19780;SDS011;10050;55.492;13.506;2024-01-07T13:44:54;6.27;;;5.17;;
19780;SDS011;10050;55.492;13.506;2024-01-07T13:47:20;6.00;;;4.80;;
19780;SDS011;10050;55.492;13.506;2024-01-07T13:49:46;6.13;;;5.23;;
19780;SDS011;10050;55.492;13.506;2024-01-07T13:52:12;6.83;;;4.90;;
19780;SDS011;10050;55.492;13.506;2024-01-07T13:54:37;6.47;;;4.80;;
19780;SDS011;10050;55.492;13.506;2024-01-07T13:57:03;7.27;;;4.80;;
19780;SDS011;10050;55.492;13.506;2024-01-07T13:59:29;5.23;;;4.70;;
19780;SDS011;10050;55.492;13.506;2024-01-07T14:01:55;7.77;;;4.73;;
19780;SDS011;10050;55.492;13.506;2024-01-07T14:04:22;6.30;;;5.40;;
19780;SDS011;10050;55.492;13.506;2024-01-07T14:06:53;6.23;;;5.10;;
19780;SDS011;10050;55.492;13.506;2024-01-07T14:09:23;7.57;;;5.07;;
19780;SDS011;10050;55.492;13.506;2024-01-07T14:11:49;7.40;;;5.17;;
19780;SDS011;10050;55.492;13.506;2024-01-07T14:14:15;7.90;;;5.57;;
19780;SDS011;10050;55.492;13.506;2024-01-07T14:16:40;7.50;;;5.00;;
19780;SDS011;10050;55.492;13.506;2024-01-07T14:19:06;5.23;;;4.67;;
19780;SDS011;10050;55.492;13.506;2024-01-07T14:21:32;7.30;;;5.20;;
19780;SDS011;10050;55.492;13.506;2024-01-07T14:23:57;7.10;;;5.07;;
19780;SDS011;10050;55.492;13.506;2024-01-07T14:26:23;7.87;;;5.27;;
19780;SDS011;10050;55.492;13.506;2024-01-07T14:28:49;6.90;;;5.13;;
19780;SDS011;10050;55.492;13.506;2024-01-07T14:31:18;6.27;;;4.70;;
19780;SDS011;10050;55.492;13.506;2024-01-07T14:33:44;7.53;;;5.20;;